Time;durP1;ratioP1;P1;durP2;ratioP2;P2;SDS_P1;SDS_P2;PMS_P1;PMS_P2;Temp;Humidity;BMP_temperature;BMP_pressure;BME280_temperature;BME280_humidity;BME280_pressure;Samples;Min_cycle;Max_cycle;Signal;HPM_P1;HPM_P2
2023/06/04 00:02:18;;;;;;;1.98;0.98;;;;;;;13.75;53.31;101471.19;4980810;28;20043;-62
2023/06/04 00:04:44;;;;;;;2.35;0.85;;;;;;;13.68;54.02;101473.88;4979433;28;20042;-62
2023/06/04 00:07:09;;;;;;;2.08;1.00;;;;;;;13.60;54.45;101475.66;4983893;28;20046;-63
2023/06/04 00:09:35;;;;;;;2.10;1.00;;;;;;;13.54;54.55;101474.84;4983244;28;20023;-63
2023/06/04 00:12:00;;;;;;;2.92;1.13;;;;;;;13.51;55.20;101472.28;4983943;28;20120;-62
2023/06/04 00:14:25;;;;;;;2.13;0.98;;;;;;;13.45;55.34;101472.34;4986110;28;20046;-62
2023/06/04 00:16:51;;;;;;;1.70;1.20;;;;;;;13.40;55.55;101475.84;4978784;28;20066;-63
2023/06/04 00:19:16;;;;;;;1.60;1.00;;;;;;;13.35;55.96;101469.84;4986476;28;20511;-62
2023/06/04 00:21:41;;;;;;;2.97;1.40;;;;;;;13.30;56.58;101466.41;4989192;28;20724;-62
2023/06/04 00:24:07;;;;;;;1.27;1.00;;;;;;;13.26;56.87;101465.59;4981704;28;20043;-62
2023/06/04 00:26:33;;;;;;;3.83;1.33;;;;;;;13.21;57.09;101469.06;4983693;28;20038;-62
2023/06/04 00:28:58;;;;;;;1.52;1.10;;;;;;;13.16;57.25;101461.34;4983349;28;20054;-62
2023/06/04 00:31:24;;;;;;;2.45;1.38;;;;;;;13.12;57.72;101464.81;4978875;28;20113;-62
2023/06/04 00:33:50;;;;;;;4.20;1.48;;;;;;;13.09;57.84;101471.78;4983724;28;20057;-63
2023/06/04 00:36:15;;;;;;;3.10;1.50;;;;;;;13.05;58.36;101470.09;4977492;28;20038;-62
2023/06/04 00:38:41;;;;;;;5.72;2.25;;;;;;;13.03;58.57;101470.06;4980304;28;20125;-62
2023/06/04 00:41:06;;;;;;;4.50;2.95;;;;;;;13.02;58.32;101475.28;4979000;28;20080;-62
2023/06/04 00:43:32;;;;;;;4.15;2.97;;;;;;;13.03;57.73;101464.06;4983406;28;20392;-62
2023/06/04 00:45:58;;;;;;;6.03;2.90;;;;;;;12.99;58.07;101469.25;4980626;28;20049;-62
2023/06/04 00:48:27;;;;;;;4.38;2.25;;;;;;;12.95;57.99;101475.28;4981271;28;20042;-62
2023/06/04 00:50:53;;;;;;;3.85;2.20;;;;;;;12.91;58.17;101472.75;4975633;28;20395;-62
2023/06/04 00:53:20;;;;;;;4.65;2.33;;;;;;;12.91;59.35;101476.19;4980669;28;20038;-62
2023/06/04 00:55:46;;;;;;;3.70;1.92;;;;;;;12.86;59.35;101475.34;4980221;28;20046;-62
2023/06/04 00:58:12;;;;;;;4.25;2.28;;;;;;;12.83;59.40;101471.91;4971475;28;20113;-62
2023/06/04 01:00:38;;;;;;;4.70;1.67;;;;;;;12.85;59.17;101462.41;4971882;28;20045;-62
2023/06/04 01:03:11;;;;;;;2.58;1.50;;;;;;;12.86;58.76;101454.59;4978832;28;20129;-62
2023/06/04 01:05:43;;;;;;;4.45;1.98;;;;;;;12.88;58.45;101454.59;4977811;28;20039;-62
2023/06/04 01:08:09;;;;;;;3.15;2.10;;;;;;;12.85;58.81;101458.06;4974179;28;20468;-62
2023/06/04 01:10:35;;;;;;;3.78;1.50;;;;;;;12.81;58.75;101466.75;4978346;28;20045;-62
2023/06/04 01:13:01;;;;;;;2.95;1.90;;;;;;;12.76;58.79;101455.53;4979946;28;20849;-62
2023/06/04 01:15:26;;;;;;;3.70;2.03;;;;;;;12.72;59.64;101460.75;4979534;28;20042;-62
2023/06/04 01:18:02;;;;;;;2.92;1.70;;;;;;;12.67;59.80;101465.94;4973811;28;20817;-62
2023/06/04 01:20:42;;;;;;;2.83;2.05;;;;;;;12.59;60.39;101474.66;4977384;28;20105;-62
2023/06/04 01:23:33;;;;;;;4.85;1.88;;;;;;;12.56;60.92;101477.25;4979059;28;20516;-62
2023/06/04 01:26:03;;;;;;;3.72;1.80;;;;;;;12.49;60.86;101475.59;4981571;28;20049;-62
2023/06/04 01:28:30;;;;;;;2.67;1.75;;;;;;;12.42;61.10;101475.59;4974840;28;20060;-62
2023/06/04 01:30:56;;;;;;;2.42;1.95;;;;;;;12.36;61.54;101483.41;4978308;28;20030;-62
2023/06/04 01:33:22;;;;;;;2.72;1.77;;;;;;;12.30;62.27;101477.38;4978434;28;20046;-62
2023/06/04 01:35:49;;;;;;;3.78;2.22;;;;;;;12.22;62.41;101472.25;4978752;28;20125;-64
2023/06/04 01:38:14;;;;;;;2.30;1.40;;;;;;;12.18;62.57;101462.75;4975819;28;20705;-62
2023/06/04 01:40:40;;;;;;;2.47;1.45;;;;;;;12.15;62.55;101469.66;4973945;28;20047;-63
2023/06/04 01:43:06;;;;;;;3.20;1.60;;;;;;;12.11;62.61;101470.56;4979219;28;21472;-62
2023/06/04 01:45:32;;;;;;;2.58;1.20;;;;;;;12.08;62.58;101467.97;4977586;28;20038;-62
2023/06/04 01:47:57;;;;;;;5.68;2.17;;;;;;;12.06;63.16;101464.50;4970346;28;20034;-62
2023/06/04 01:50:23;;;;;;;3.85;1.67;;;;;;;12.01;63.54;101469.72;4993666;28;20446;-62
2023/06/04 01:52:49;;;;;;;5.90;1.73;;;;;;;11.97;63.86;101469.72;4979775;28;20045;-62
2023/06/04 01:55:17;;;;;;;3.90;1.65;;;;;;;11.88;64.06;101468.88;4980095;28;20105;-62
2023/06/04 01:57:45;;;;;;;2.38;1.27;;;;;;;11.80;64.54;101464.59;4976980;28;20019;-62
2023/06/04 02:00:11;;;;;;;5.10;1.77;;;;;;;11.74;65.40;101469.78;4978036;28;20072;-62
2023/06/04 02:02:38;;;;;;;4.20;1.40;;;;;;;11.69;65.14;101472.38;4976708;28;20037;-62
2023/06/04 02:05:07;;;;;;;2.90;1.60;;;;;;;11.64;65.35;101474.13;4977341;28;20093;-62
2023/06/04 02:07:39;;;;;;;2.60;1.60;;;;;;;11.58;65.19;101468.06;4980527;28;20046;-62
2023/06/04 02:10:15;;;;;;;1.38;1.05;;;;;;;11.51;66.01;101471.56;4979667;28;20037;-63
2023/06/04 02:12:56;;;;;;;4.28;1.50;;;;;;;11.44;65.90;101469.81;4982686;28;20035;-62
2023/06/04 02:15:22;;;;;;;3.88;1.33;;;;;;;11.38;66.61;101469.78;4963257;28;20130;-62
2023/06/04 02:17:50;;;;;;;4.00;1.35;;;;;;;11.34;66.92;101463.75;4957790;28;20191;-63
2023/06/04 02:20:16;;;;;;;2.55;1.60;;;;;;;11.31;66.90;101467.19;4959514;28;20568;-62
2023/06/04 02:22:42;;;;;;;3.08;1.50;;;;;;;11.33;67.09;101477.56;4966252;28;20039;-62
2023/06/04 02:25:09;;;;;;;4.20;1.60;;;;;;;11.28;67.29;101472.38;4966752;28;20035;-62
2023/06/04 02:27:35;;;;;;;2.53;1.27;;;;;;;11.24;66.93;101460.31;4966721;28;20057;-62
2023/06/04 02:30:00;;;;;;;6.15;1.85;;;;;;;11.20;67.80;101471.53;4981267;28;20038;-63
2023/06/04 02:32:25;;;;;;;2.25;1.48;;;;;;;11.17;67.77;101466.34;4973715;28;20074;-62
2023/06/04 02:34:51;;;;;;;1.58;1.25;;;;;;;11.14;68.44;101470.66;4964980;28;20062;-62
2023/06/04 02:37:16;;;;;;;3.42;1.45;;;;;;;11.11;67.83;101473.22;4965216;28;20049;-62
2023/06/04 02:39:42;;;;;;;3.63;1.45;;;;;;;11.07;68.68;101466.34;4962978;28;20034;-62
2023/06/04 02:42:07;;;;;;;2.20;1.23;;;;;;;11.06;68.10;101464.63;4963985;28;20050;-62
2023/06/04 02:44:32;;;;;;;2.92;1.58;;;;;;;11.05;68.52;101466.34;4964398;28;20050;-62
2023/06/04 02:46:58;;;;;;;4.82;1.63;;;;;;;11.05;69.54;101475.81;4960221;28;20038;-62
2023/06/04 02:49:23;;;;;;;2.95;2.15;;;;;;;11.02;69.16;101471.50;4967118;28;20037;-62
2023/06/04 02:51:49;;;;;;;2.78;1.80;;;;;;;11.01;70.02;101468.94;4985254;28;20034;-62
2023/06/04 02:54:15;;;;;;;4.57;1.50;;;;;;;10.95;70.05;101477.53;4967146;28;20045;-62
2023/06/04 02:56:40;;;;;;;1.83;1.30;;;;;;;10.91;70.86;101469.78;4963697;28;20038;-62
2023/06/04 02:59:09;;;;;;;4.82;2.03;;;;;;;10.90;70.82;101468.91;4963042;28;20038;-62
2023/06/04 03:01:35;;;;;;;2.88;2.08;;;;;;;10.91;70.42;101469.78;4959955;28;20122;-62
2023/06/04 03:04:03;;;;;;;3.92;1.70;;;;;;;10.88;70.55;101465.47;4960698;28;20035;-63
2023/06/04 03:06:29;;;;;;;2.80;1.40;;;;;;;10.87;71.04;101466.31;4959410;28;20562;-64
2023/06/04 03:08:55;;;;;;;2.97;1.60;;;;;;;10.85;70.36;101468.03;4955331;28;20133;-63
2023/06/04 03:11:21;;;;;;;2.80;1.83;;;;;;;10.86;70.38;101467.16;4961145;28;20073;-63
2023/06/04 03:13:47;;;;;;;4.13;1.63;;;;;;;10.84;71.01;101466.31;4960800;28;20125;-67
2023/06/04 03:16:13;;;;;;;3.38;2.00;;;;;;;10.82;71.37;101473.22;4953373;28;20031;-63
2023/06/04 03:18:43;;;;;;;3.63;1.75;;;;;;;10.80;71.40;101472.34;4956643;28;20484;-62
2023/06/04 03:21:11;;;;;;;3.10;1.85;;;;;;;10.72;72.25;101474.03;4991347;28;20437;-62
2023/06/04 03:23:37;;;;;;;2.65;1.77;;;;;;;10.69;71.96;101479.19;4957965;28;20051;-62
2023/06/04 03:26:06;;;;;;;5.55;1.60;;;;;;;10.65;72.13;101473.16;4958735;28;20137;-62
2023/06/04 03:28:32;;;;;;;6.40;1.63;;;;;;;10.61;71.82;101479.19;4959835;28;20049;-62
2023/06/04 03:30:58;;;;;;;6.75;1.98;;;;;;;10.61;71.71;101476.59;4958981;28;20035;-62
2023/06/04 03:33:24;;;;;;;4.28;1.80;;;;;;;10.62;72.34;101482.66;4955577;28;20537;-62
2023/06/04 03:35:50;;;;;;;2.45;1.50;;;;;;;10.59;72.01;101477.47;4952617;28;20050;-62
2023/06/04 03:38:16;;;;;;;2.80;1.77;;;;;;;10.59;71.75;101474.88;4956195;28;20793;-62
2023/06/04 03:40:42;;;;;;;3.83;1.70;;;;;;;10.57;72.01;101469.69;4959579;28;20042;-62
2023/06/04 03:43:08;;;;;;;2.72;1.50;;;;;;;10.59;71.88;101457.66;4960201;28;20039;-62
2023/06/04 03:45:34;;;;;;;2.97;1.63;;;;;;;10.61;71.78;101455.94;4960897;28;20527;-62
2023/06/04 03:47:59;;;;;;;5.10;1.63;;;;;;;10.66;72.06;101461.09;4958354;28;20047;-62
2023/06/04 03:50:25;;;;;;;3.88;2.00;;;;;;;10.72;72.49;101474.03;4960386;28;20046;-62
2023/06/04 03:52:50;;;;;;;4.25;1.73;;;;;;;10.75;72.29;101467.16;4962354;28;20109;-63
2023/06/04 03:55:16;;;;;;;4.78;2.05;;;;;;;10.79;72.72;101463.72;4961523;28;20038;-62
2023/06/04 03:57:41;;;;;;;1.75;1.38;;;;;;;10.84;72.59;101463.72;4959710;28;20033;-62
2023/06/04 04:00:11;;;;;;;4.68;2.10;;;;;;;10.90;72.90;101468.03;4958992;28;20051;-63
2023/06/04 04:02:37;;;;;;;2.38;1.63;;;;;;;10.93;72.90;101458.56;4959053;28;20039;-63
2023/06/04 04:05:03;;;;;;;6.00;1.80;;;;;;;10.97;72.00;101457.72;4959612;28;20035;-63
2023/06/04 04:07:28;;;;;;;3.20;2.15;;;;;;;11.01;72.38;101454.25;4956999;28;20035;-62
2023/06/04 04:09:53;;;;;;;4.72;1.60;;;;;;;11.06;71.67;101454.28;4990141;28;20033;-63
2023/06/04 04:12:19;;;;;;;3.17;1.63;;;;;;;11.12;72.50;101449.09;4957994;28;20393;-62
2023/06/04 04:14:44;;;;;;;4.03;1.60;;;;;;;11.19;71.47;101454.25;4959408;28;20043;-62
2023/06/04 04:17:09;;;;;;;4.30;2.47;;;;;;;11.28;71.53;101453.41;4954765;28;20084;-63
2023/06/04 04:19:35;;;;;;;4.35;2.33;;;;;;;11.41;72.04;101452.53;4955084;28;20051;-62
2023/06/04 04:22:01;;;;;;;4.28;2.60;;;;;;;11.48;71.34;101453.44;4954801;28;20757;-63
2023/06/04 04:24:27;;;;;;;5.53;2.25;;;;;;;11.54;71.35;101443.94;4962741;28;20042;-62
2023/06/04 04:26:53;;;;;;;7.05;4.13;;;;;;;11.61;71.29;101448.22;4982023;28;20053;-62
2023/06/04 04:29:24;;;;;;;3.92;2.10;;;;;;;11.68;70.90;101451.66;4985054;28;20508;-63
2023/06/04 04:31:56;;;;;;;3.08;2.03;;;;;;;11.77;70.91;101457.69;4972146;28;20058;-63
2023/06/04 04:34:23;;;;;;;3.17;1.70;;;;;;;11.85;71.35;101455.06;4961038;28;20038;-63
2023/06/04 04:36:52;;;;;;;3.50;1.90;;;;;;;11.88;70.83;101448.16;4960121;28;20019;-63
2023/06/04 04:39:24;;;;;;;2.15;1.58;;;;;;;11.97;70.57;101449.00;4959038;28;20043;-62
2023/06/04 04:41:49;;;;;;;2.97;2.08;;;;;;;12.02;71.47;101453.28;4956698;28;20047;-63
2023/06/04 04:44:15;;;;;;;3.95;1.60;;;;;;;12.10;70.83;101458.47;4959811;28;20030;-62
2023/06/04 04:46:40;;;;;;;5.95;2.47;;;;;;;12.17;70.89;101452.38;4955079;28;20039;-63
2023/06/04 04:49:05;;;;;;;3.55;1.60;;;;;;;12.22;70.78;101451.50;4955784;28;20032;-63
2023/06/04 04:51:31;;;;;;;4.10;1.80;;;;;;;12.28;70.46;101454.06;4957747;28;20026;-63
2023/06/04 04:54:00;;;;;;;3.38;1.90;;;;;;;12.33;70.50;101457.50;4957309;28;20253;-63
2023/06/04 04:56:26;;;;;;;3.78;1.50;;;;;;;12.39;70.21;101454.00;4959812;28;20045;-63
2023/06/04 04:58:51;;;;;;;2.90;2.17;;;;;;;12.45;70.11;101456.56;4957383;28;20035;-62
2023/06/04 05:01:17;;;;;;;2.45;1.80;;;;;;;12.49;70.24;101449.66;4955852;28;20122;-63
2023/06/04 05:03:42;;;;;;;2.05;1.40;;;;;;;12.55;70.24;101444.44;4955119;28;20137;-63
2023/06/04 05:06:08;;;;;;;2.85;1.70;;;;;;;12.60;69.93;101443.53;4954546;28;20031;-63
2023/06/04 05:08:33;;;;;;;3.25;1.80;;;;;;;12.65;69.06;101439.16;4953979;28;20393;-63
2023/06/04 05:10:59;;;;;;;3.38;1.65;;;;;;;12.72;67.75;101424.44;4954866;28;20105;-63
2023/06/04 05:13:24;;;;;;;3.72;1.60;;;;;;;12.79;66.58;101415.75;4957523;28;20042;-62
2023/06/04 05:15:52;;;;;;;2.85;1.70;;;;;;;12.86;65.93;101412.22;4969221;28;20043;-63
2023/06/04 05:18:20;;;;;;;2.70;1.70;;;;;;;12.93;65.60;101408.72;4953549;28;20424;-63
2023/06/04 05:20:46;;;;;;;3.92;1.90;;;;;;;13.03;64.81;101396.56;4958251;28;20034;-63
2023/06/04 05:23:12;;;;;;;2.60;1.52;;;;;;;13.12;64.28;101401.69;4958488;28;20039;-63
2023/06/04 05:25:37;;;;;;;6.38;1.70;;;;;;;13.19;63.90;101401.59;4956136;28;20038;-63
2023/06/04 05:28:03;;;;;;;3.50;1.67;;;;;;;13.26;63.43;101394.63;4959568;28;20085;-63
2023/06/04 05:30:28;;;;;;;4.38;1.95;;;;;;;13.30;63.09;101404.97;4979071;28;20075;-63
2023/06/04 05:32:54;;;;;;;2.72;1.55;;;;;;;13.38;63.08;101402.31;4965282;28;20357;-63
2023/06/04 05:35:20;;;;;;;2.70;1.63;;;;;;;13.42;62.98;101414.38;4974269;28;20496;-63
2023/06/04 05:37:45;;;;;;;5.20;2.38;;;;;;;13.47;62.69;101410.84;4972482;28;20045;-63
2023/06/04 05:40:11;;;;;;;2.80;1.90;;;;;;;13.51;62.84;101416.88;4961106;28;20050;-63
2023/06/04 05:42:37;;;;;;;3.80;1.80;;;;;;;13.54;62.82;101422.91;4952311;28;20062;-63
2023/06/04 05:45:03;;;;;;;4.78;1.67;;;;;;;13.57;62.67;101412.47;4977577;28;20031;-63
2023/06/04 05:47:29;;;;;;;2.47;1.52;;;;;;;13.62;62.52;101417.66;4973400;28;20773;-63
2023/06/04 05:49:55;;;;;;;2.33;1.75;;;;;;;13.67;62.26;101410.66;4966449;28;20145;-64
2023/06/04 05:52:20;;;;;;;3.38;1.98;;;;;;;13.70;61.01;101397.63;4950965;28;20853;-64
2023/06/04 05:54:45;;;;;;;3.40;1.88;;;;;;;13.77;60.84;101401.03;4955343;28;20037;-64
2023/06/04 05:57:11;;;;;;;3.03;1.75;;;;;;;13.84;59.75;101393.13;4969664;28;20046;-64
2023/06/04 05:59:36;;;;;;;3.20;1.83;;;;;;;13.95;59.42;101396.47;4975000;28;20054;-64
2023/06/04 06:02:02;;;;;;;3.88;1.77;;;;;;;14.05;59.17;101394.59;4973161;28;20042;-64
2023/06/04 06:04:27;;;;;;;2.55;1.90;;;;;;;14.10;58.90;101398.00;4982886;28;20504;-64
2023/06/04 06:06:53;;;;;;;4.75;2.03;;;;;;;14.18;59.26;101414.38;4983050;28;20115;-64
2023/06/04 06:09:19;;;;;;;2.28;1.35;;;;;;;14.21;59.79;101413.47;4981392;28;20034;-63
2023/06/04 06:11:44;;;;;;;2.92;1.67;;;;;;;14.26;59.40;101409.94;4987173;28;20117;-63
2023/06/04 06:14:10;;;;;;;2.05;1.48;;;;;;;14.37;58.63;101399.38;4983025;28;20180;-63
2023/06/04 06:16:36;;;;;;;3.40;1.65;;;;;;;14.47;57.94;101395.81;4977730;28;20108;-64
2023/06/04 06:19:02;;;;;;;2.65;1.52;;;;;;;14.56;57.23;101393.94;4980186;28;20054;-64
2023/06/04 06:21:27;;;;;;;3.00;1.40;;;;;;;14.67;56.98;101391.16;4984721;28;20026;-64
2023/06/04 06:23:54;;;;;;;2.95;1.45;;;;;;;14.77;54.42;101373.69;4984748;28;20153;-64
2023/06/04 06:26:19;;;;;;;5.25;1.70;;;;;;;14.86;54.68;101381.34;4981615;28;20404;-64
2023/06/04 06:28:45;;;;;;;3.10;1.90;;;;;;;14.95;53.02;101363.84;4981814;28;20088;-64
2023/06/04 06:31:10;;;;;;;3.60;1.73;;;;;;;15.06;52.95;101374.91;4981032;28;20092;-64
2023/06/04 06:33:40;;;;;;;3.88;1.48;;;;;;;15.11;53.54;101383.50;4982496;28;20024;-63
2023/06/04 06:36:07;;;;;;;5.50;1.60;;;;;;;15.18;52.29;101372.09;4973076;28;20104;-64
2023/06/04 06:38:32;;;;;;;3.63;1.60;;;;;;;15.26;51.05;101361.53;4981336;28;20049;-64
2023/06/04 06:40:57;;;;;;;3.75;1.48;;;;;;;15.38;50.38;101363.06;4985903;28;20034;-64
2023/06/04 06:43:23;;;;;;;3.08;1.75;;;;;;;15.49;50.93;101372.41;4981097;28;20511;-64
2023/06/04 06:45:48;;;;;;;3.10;1.92;;;;;;;15.67;49.61;101366.88;4976858;28;20041;-64
2023/06/04 06:48:14;;;;;;;2.45;1.48;;;;;;;15.74;49.43;101378.03;4976852;28;20130;-64
2023/06/04 06:50:39;;;;;;;2.83;1.83;;;;;;;15.82;49.64;101386.56;4982487;28;20049;-64
2023/06/04 06:53:04;;;;;;;2.58;1.95;;;;;;;15.95;50.18;101398.47;4973438;28;20676;-64
2023/06/04 06:55:30;;;;;;;4.03;1.75;;;;;;;16.02;49.53;101388.78;4958943;28;20066;-63
2023/06/04 06:57:55;;;;;;;6.82;1.63;;;;;;;16.05;49.55;101386.97;4959632;28;20034;-63
2023/06/04 07:00:21;;;;;;;2.88;1.80;;;;;;;16.10;49.67;101392.06;4963135;28;20042;-64
2023/06/04 07:02:46;;;;;;;4.00;1.60;;;;;;;16.15;49.80;101387.59;4975123;28;20046;-67
2023/06/04 07:05:14;;;;;;;2.67;1.92;;;;;;;16.16;50.23;101395.41;4984546;28;20515;-69
2023/06/04 07:07:39;;;;;;;4.43;1.60;;;;;;;16.25;49.58;101390.00;4979869;28;20066;-69
2023/06/04 07:10:05;;;;;;;2.50;1.70;;;;;;;16.28;49.45;101391.69;4980203;28;20173;-68
2023/06/04 07:12:30;;;;;;;6.28;1.90;;;;;;;16.32;48.50;101382.91;4978437;28;20472;-67
2023/06/04 07:14:56;;;;;;;4.15;1.83;;;;;;;16.38;48.33;101380.16;4977031;28;20187;-67
2023/06/04 07:17:22;;;;;;;4.28;2.30;;;;;;;16.45;47.81;101373.91;4976716;28;20041;-63
2023/06/04 07:19:47;;;;;;;3.95;2.05;;;;;;;16.56;46.67;101377.09;4981074;28;20081;-63
2023/06/04 07:22:15;;;;;;;3.15;1.52;;;;;;;16.57;47.28;101384.06;4981785;28;20041;-64
2023/06/04 07:24:41;;;;;;;2.45;1.52;;;;;;;16.63;47.79;101383.03;4983539;28;20025;-64
2023/06/04 07:27:11;;;;;;;2.97;1.73;;;;;;;16.71;48.03;101402.03;4980384;28;20342;-63
2023/06/04 07:29:37;;;;;;;3.17;1.80;;;;;;;16.80;48.43;101407.06;4977303;28;20096;-65
2023/06/04 07:32:02;;;;;;;5.40;1.80;;;;;;;16.85;47.85;101400.84;4975706;28;20053;-63
2023/06/04 07:34:27;;;;;;;5.95;2.05;;;;;;;17.04;47.44;101396.00;4981849;28;20074;-63
2023/06/04 07:36:53;;;;;;;6.07;2.30;;;;;;;17.17;46.71;101389.59;4978245;28;20424;-63
2023/06/04 07:39:18;;;;;;;2.80;1.90;;;;;;;17.21;46.56;101386.00;5006300;28;20043;-63
2023/06/04 07:41:43;;;;;;;3.75;1.80;;;;;;;17.24;46.26;101387.69;4976392;28;20614;-63
2023/06/04 07:44:09;;;;;;;5.25;1.50;;;;;;;17.35;47.75;101402.19;4985120;28;20172;-63
2023/06/04 07:46:34;;;;;;;6.95;2.38;;;;;;;17.40;47.04;101384.63;4975940;28;20443;-63
2023/06/04 07:49:00;;;;;;;2.88;1.73;;;;;;;17.44;46.61;101382.78;4972479;28;20061;-65
2023/06/04 07:51:25;;;;;;;3.90;1.77;;;;;;;17.54;46.71;101386.88;4980910;28;20785;-64
2023/06/04 07:53:51;;;;;;;4.43;1.92;;;;;;;17.60;47.01;101391.91;4984189;28;20085;-64
2023/06/04 07:56:16;;;;;;;2.38;1.50;;;;;;;17.66;47.93;101399.59;4978887;28;20058;-63
2023/06/04 07:58:43;;;;;;;3.25;1.83;;;;;;;17.72;47.68;101404.66;4978832;28;20112;-63
2023/06/04 08:01:09;;;;;;;3.60;1.45;;;;;;;17.88;46.63;101392.03;4978210;28;20092;-63
2023/06/04 08:03:35;;;;;;;3.58;2.00;;;;;;;17.98;46.12;101380.44;5016881;28;20025;-64
2023/06/04 08:06:01;;;;;;;5.20;1.70;;;;;;;18.08;45.45;101370.56;4978747;28;20059;-63
2023/06/04 08:08:27;;;;;;;2.03;1.58;;;;;;;18.15;44.92;101372.06;4983173;28;20041;-63
2023/06/04 08:10:52;;;;;;;3.72;2.10;;;;;;;18.26;44.99;101378.69;4978284;28;20093;-63
2023/06/04 08:13:17;;;;;;;5.60;1.95;;;;;;;18.35;44.53;101372.31;4980225;28;20037;-63
2023/06/04 08:15:43;;;;;;;2.72;1.73;;;;;;;18.42;46.03;101395.66;4981730;28;20030;-63
2023/06/04 08:18:09;;;;;;;2.88;1.52;;;;;;;18.52;44.78;101372.69;4968216;28;20039;-63
2023/06/04 08:20:34;;;;;;;4.50;1.90;;;;;;;18.57;44.10;101365.53;4975701;28;20558;-62
2023/06/04 08:23:00;;;;;;;5.50;1.70;;;;;;;18.61;43.39;101363.66;4980699;28;20428;-62
2023/06/04 08:25:25;;;;;;;5.20;1.73;;;;;;;18.60;43.73;101372.41;4979484;28;20049;-63
2023/06/04 08:27:51;;;;;;;7.65;1.67;;;;;;;18.65;44.50;101379.22;4978317;28;20484;-63
2023/06/04 08:30:16;;;;;;;2.60;1.73;;;;;;;18.77;45.01;101397.16;4976332;28;20060;-63
2023/06/04 08:32:41;;;;;;;4.28;1.80;;;;;;;18.87;44.14;101382.91;4974617;28;20034;-62
2023/06/04 08:35:07;;;;;;;4.28;1.70;;;;;;;18.96;43.63;101369.50;4975544;28;20035;-63
2023/06/04 08:37:33;;;;;;;4.93;1.48;;;;;;;19.07;43.87;101370.00;4981176;28;20038;-63
2023/06/04 08:39:58;;;;;;;2.47;1.30;;;;;;;19.21;44.07;101384.38;4977627;28;20030;-63
2023/06/04 08:42:44;;;;;;;5.22;1.75;;;;;;;19.41;44.11;101379.34;4974400;28;20124;-63
2023/06/04 08:45:12;;;;;;;4.03;1.48;;;;;;;19.53;43.36;101371.03;4977880;28;20045;-67
2023/06/04 08:47:47;;;;;;;3.80;1.50;;;;;;;19.63;43.15;101369.78;4976083;28;20066;-67
2023/06/04 08:50:17;;;;;;;2.92;1.60;;;;;;;19.78;43.02;101363.97;4976945;28;20042;-67
2023/06/04 08:52:42;;;;;;;3.75;1.70;;;;;;;19.82;41.63;101349.88;4983060;28;20046;-67
2023/06/04 08:55:13;;;;;;;5.22;1.60;;;;;;;19.99;42.61;101370.22;4979945;28;20733;-66
2023/06/04 08:57:39;;;;;;;3.55;1.40;;;;;;;20.18;42.65;101376.50;4974813;28;20910;-67
2023/06/04 09:00:07;;;;;;;4.18;1.40;;;;;;;20.26;42.59;101373.59;4973455;28;20534;-68
2023/06/04 09:02:38;;;;;;;2.53;1.50;;;;;;;20.30;42.50;101377.81;4976672;28;20470;-67
2023/06/04 09:05:10;;;;;;;2.95;1.20;;;;;;;20.35;42.62;101370.59;4980097;28;20034;-67
2023/06/04 09:07:38;;;;;;;4.63;1.60;;;;;;;20.49;41.91;101371.78;4976467;28;20046;-67
2023/06/04 09:10:06;;;;;;;3.85;1.30;;;;;;;20.76;40.52;101350.59;4974922;28;20455;-67
2023/06/04 09:12:35;;;;;;;4.00;1.63;;;;;;;20.89;39.08;101349.19;4975254;28;20022;-67
2023/06/04 09:15:00;;;;;;;6.55;1.77;;;;;;;20.97;40.06;101366.34;4973588;28;20113;-67
2023/06/04 09:17:28;;;;;;;10.32;1.95;;;;;;;21.13;39.00;101356.03;4967843;28;21067;-67
2023/06/04 09:19:53;;;;;;;5.57;1.80;;;;;;;21.07;36.74;101337.91;4977051;28;20049;-67
2023/06/04 09:22:19;;;;;;;7.35;2.00;;;;;;;21.15;37.24;101348.94;4977649;28;20434;-68
2023/06/04 09:24:52;;;;;;;3.60;1.23;;;;;;;21.28;35.97;101336.97;4978487;28;20038;-68
2023/06/04 09:27:20;;;;;;;3.60;1.60;;;;;;;21.40;35.65;101338.22;5008520;28;20046;-68
2023/06/04 09:29:56;;;;;;;3.92;1.60;;;;;;;21.60;35.94;101354.84;4974377;28;20053;-68
2023/06/04 09:32:26;;;;;;;3.67;1.45;;;;;;;21.86;35.27;101332.63;5007633;28;20773;-67
2023/06/04 09:34:53;;;;;;;4.90;1.67;;;;;;;22.01;33.74;101326.66;4977182;28;20034;-69
2023/06/04 09:37:18;;;;;;;2.88;1.58;;;;;;;22.17;34.24;101330.28;4977815;28;20026;-68
2023/06/04 09:39:56;;;;;;;3.53;1.60;;;;;;;22.09;33.62;101337.66;4975541;28;20847;-68
2023/06/04 09:42:22;;;;;;;3.03;1.20;;;;;;;22.16;33.52;101348.78;4977268;28;20467;-69
2023/06/04 09:44:48;;;;;;;5.72;1.55;;;;;;;22.09;32.74;101337.66;4977232;28;20153;-68
2023/06/04 09:47:14;;;;;;;10.10;1.70;;;;;;;22.18;33.18;101350.41;4978260;28;20042;-68
2023/06/04 09:49:49;;;;;;;2.25;1.40;;;;;;;22.44;33.24;101343.09;4979086;28;20078;-68
2023/06/04 09:52:14;;;;;;;4.15;1.13;;;;;;;22.51;32.74;101340.06;4987031;28;20594;-68
2023/06/04 09:54:41;;;;;;;2.38;1.20;;;;;;;22.54;30.97;101328.53;4980943;28;20053;-68
2023/06/04 09:57:18;;;;;;;2.33;1.30;;;;;;;22.55;30.39;101330.25;4973289;28;20039;-68
2023/06/04 09:59:45;;;;;;;9.80;1.63;;;;;;;22.73;31.26;101351.28;4969636;28;20122;-68
2023/06/04 10:02:12;;;;;;;1.73;1.15;;;;;;;22.80;28.43;101326.31;4978442;28;20043;-69
2023/06/04 10:04:42;;;;;;;3.97;1.27;;;;;;;23.08;29.88;101344.25;4973869;28;20034;-68
2023/06/04 10:07:09;;;;;;;2.42;1.50;;;;;;;23.07;28.47;101339.03;4973985;28;20400;-68
2023/06/04 10:09:42;;;;;;;3.90;1.30;;;;;;;23.25;28.50;101341.63;4975611;28;20034;-69
2023/06/04 10:12:09;;;;;;;4.60;1.08;;;;;;;23.36;28.04;101338.44;4984716;28;20066;-68
2023/06/04 10:14:57;;;;;;;4.25;1.48;;;;;;;23.30;27.05;101333.47;4984891;28;20046;-68
2023/06/04 10:17:24;;;;;;;5.88;1.30;;;;;;;23.33;28.13;101349.97;4973013;28;20031;-63
2023/06/04 10:19:54;;;;;;;2.35;1.13;;;;;;;23.47;27.49;101337.88;4977590;28;20085;-63
2023/06/04 10:22:20;;;;;;;3.65;1.48;;;;;;;23.54;28.03;101355.91;4986829;28;20038;-63
2023/06/04 10:24:46;;;;;;;4.28;1.85;;;;;;;23.36;26.60;101339.28;4985673;28;20022;-63
2023/06/04 10:27:12;;;;;;;2.20;1.30;;;;;;;23.36;27.45;101343.72;4986517;28;20068;-64
2023/06/04 10:29:39;;;;;;;3.92;1.38;;;;;;;23.53;26.13;101327.84;4991303;28;20031;-63
2023/06/04 10:32:04;;;;;;;4.55;1.50;;;;;;;23.52;26.70;101331.41;4972807;28;20076;-63
2023/06/04 10:34:30;;;;;;;3.28;1.27;;;;;;;23.53;26.37;101329.63;4978128;28;20452;-63
2023/06/04 10:36:56;;;;;;;3.58;1.38;;;;;;;23.66;26.78;101336.81;4974487;28;20035;-63
2023/06/04 10:39:35;;;;;;;7.70;1.50;;;;;;;23.94;27.87;101338.81;4975305;28;20153;-64
2023/06/04 10:42:07;;;;;;;3.92;1.30;;;;;;;24.09;26.51;101335.38;4979177;28;20985;-64
2023/06/04 10:44:47;;;;;;;2.78;1.10;;;;;;;24.15;26.61;101324.47;4974834;28;20062;-63
2023/06/04 10:47:22;;;;;;;1.80;1.10;;;;;;;24.37;25.80;101313.56;4972513;28;20039;-63
2023/06/04 10:49:53;;;;;;;3.13;1.05;;;;;;;24.44;25.70;101318.38;4977876;28;20090;-63
2023/06/04 10:52:19;;;;;;;4.53;1.65;;;;;;;24.48;24.94;101313.78;4979485;28;20551;-63
2023/06/04 10:54:48;;;;;;;1.80;1.08;;;;;;;24.42;25.91;101330.84;4983266;28;20050;-63
2023/06/04 10:57:17;;;;;;;2.00;1.23;;;;;;;24.67;26.39;101327.63;4974438;28;20033;-63
2023/06/04 11:00:06;;;;;;;2.95;1.30;;;;;;;24.63;26.35;101333.19;4978081;28;20050;-64
2023/06/04 11:02:31;;;;;;;2.50;1.30;;;;;;;24.80;26.55;101343.69;4977243;28;20042;-64
2023/06/04 11:05:09;;;;;;;4.03;1.60;;;;;;;24.46;25.30;101332.34;4985742;28;20062;-64
2023/06/04 11:07:49;;;;;;;1.75;1.20;;;;;;;24.57;26.95;101350.25;4979094;28;20037;-64
2023/06/04 11:10:16;;;;;;;2.78;1.23;;;;;;;24.52;25.79;101328.53;4980216;28;20054;-64
2023/06/04 11:12:47;;;;;;;7.50;1.00;;;;;;;24.77;26.26;101333.28;4981289;28;20030;-64
2023/06/04 11:15:13;;;;;;;4.85;1.40;;;;;;;24.79;25.44;101323.47;4984804;28;20507;-64
2023/06/04 11:17:52;;;;;;;7.32;1.85;;;;;;;24.61;25.33;101324.50;4982311;28;20038;-64
2023/06/04 11:20:19;;;;;;;3.22;1.10;;;;;;;24.46;26.42;101331.53;4980043;28;20520;-63
2023/06/04 11:22:58;;;;;;;3.78;1.15;;;;;;;24.75;25.65;101316.66;4981139;28;20042;-63
2023/06/04 11:25:24;;;;;;;3.85;1.30;;;;;;;25.01;26.28;101319.47;4977038;28;20030;-63